Terminal Aerodrome Forecast
Issued by NWS

Home | Current Version | Previous Version | Text Only | Print | Product List | Glossary On
Versions: 1 2 3 4 5 6 7 8 9 10 11 12 13 14 15 16 17 18 19 20 21 22
000
FTUS41 KALY 212329
TAFPSF
TAF
KPSF 212329Z 2200/2224 22008KT P6SM BKN050 OVC150
     FM220300 20005KT 4SM -FZRA BKN025 OVC050
     FM221000 VRB03KT 3SM BR BKN008 OVC050
     FM221400 VRB04KT P6SM OVC015=

USA.gov is the U.S. government's official web portal to all federal, state and local government web resources and services.